sensor_id;sensor_type;location;lat;lon;timestamp;P1;durP1;ratioP1;P2;durP2;ratioP2
72761;SDS011;60886;55.034;73.150;2023-07-30T00:02:14;11.43;;;4.77;;
72761;SDS011;60886;55.034;73.150;2023-07-30T00:05:15;8.95;;;4.68;;
72761;SDS011;60886;55.034;73.150;2023-07-30T00:08:17;11.37;;;5.20;;
72761;SDS011;60886;55.034;73.150;2023-07-30T00:11:18;10.10;;;4.80;;
72761;SDS011;60886;55.034;73.150;2023-07-30T00:14:20;10.98;;;5.03;;
72761;SDS011;60886;55.034;73.150;2023-07-30T00:17:22;9.73;;;4.73;;
72761;SDS011;60886;55.034;73.150;2023-07-30T00:20:23;10.18;;;5.60;;
72761;SDS011;60886;55.034;73.150;2023-07-30T00:23:26;10.63;;;5.13;;
72761;SDS011;60886;55.034;73.150;2023-07-30T00:26:29;10.38;;;5.20;;
72761;SDS011;60886;55.034;73.150;2023-07-30T00:29:31;9.20;;;4.90;;
72761;SDS011;60886;55.034;73.150;2023-07-30T00:32:33;10.67;;;5.33;;
72761;SDS011;60886;55.034;73.150;2023-07-30T00:35:39;10.40;;;5.30;;
72761;SDS011;60886;55.034;73.150;2023-07-30T00:38:40;9.57;;;5.10;;
72761;SDS011;60886;55.034;73.150;2023-07-30T00:41:42;10.82;;;5.53;;
72761;SDS011;60886;55.034;73.150;2023-07-30T00:44:43;9.45;;;5.35;;
72761;SDS011;60886;55.034;73.150;2023-07-30T00:47:45;11.88;;;5.80;;
72761;SDS011;60886;55.034;73.150;2023-07-30T00:50:46;13.30;;;5.88;;
72761;SDS011;60886;55.034;73.150;2023-07-30T00:53:48;14.77;;;7.25;;
72761;SDS011;60886;55.034;73.150;2023-07-30T00:56:50;13.27;;;6.53;;
72761;SDS011;60886;55.034;73.150;2023-07-30T00:59:53;10.38;;;5.60;;
72761;SDS011;60886;55.034;73.150;2023-07-30T01:02:55;10.90;;;6.10;;
72761;SDS011;60886;55.034;73.150;2023-07-30T01:05:57;10.13;;;5.90;;
72761;SDS011;60886;55.034;73.150;2023-07-30T01:08:59;9.80;;;5.10;;
72761;SDS011;60886;55.034;73.150;2023-07-30T01:12:01;10.53;;;5.83;;
72761;SDS011;60886;55.034;73.150;2023-07-30T01:15:05;11.32;;;6.10;;
72761;SDS011;60886;55.034;73.150;2023-07-30T01:18:08;19.57;;;12.67;;
72761;SDS011;60886;55.034;73.150;2023-07-30T01:21:09;13.65;;;6.57;;
72761;SDS011;60886;55.034;73.150;2023-07-30T01:24:11;11.37;;;6.00;;
72761;SDS011;60886;55.034;73.150;2023-07-30T01:27:14;10.63;;;6.13;;
72761;SDS011;60886;55.034;73.150;2023-07-30T01:30:30;11.60;;;6.03;;
72761;SDS011;60886;55.034;73.150;2023-07-30T01:33:46;14.17;;;6.20;;
72761;SDS011;60886;55.034;73.150;2023-07-30T01:36:50;13.35;;;6.05;;
72761;SDS011;60886;55.034;73.150;2023-07-30T01:39:54;12.43;;;6.13;;
72761;SDS011;60886;55.034;73.150;2023-07-30T01:42:57;10.52;;;5.60;;
72761;SDS011;60886;55.034;73.150;2023-07-30T01:45:58;11.13;;;5.78;;
72761;SDS011;60886;55.034;73.150;2023-07-30T01:49:00;10.73;;;5.50;;
72761;SDS011;60886;55.034;73.150;2023-07-30T01:52:01;12.05;;;5.60;;
72761;SDS011;60886;55.034;73.150;2023-07-30T01:55:03;11.00;;;5.70;;
72761;SDS011;60886;55.034;73.150;2023-07-30T01:58:06;10.95;;;5.85;;
72761;SDS011;60886;55.034;73.150;2023-07-30T02:01:08;11.17;;;5.67;;
72761;SDS011;60886;55.034;73.150;2023-07-30T02:04:10;10.45;;;5.68;;
72761;SDS011;60886;55.034;73.150;2023-07-30T02:07:11;10.90;;;5.67;;
72761;SDS011;60886;55.034;73.150;2023-07-30T02:10:12;13.82;;;5.60;;
72761;SDS011;60886;55.034;73.150;2023-07-30T02:13:14;10.00;;;5.17;;
72761;SDS011;60886;55.034;73.150;2023-07-30T02:16:16;10.80;;;5.80;;
72761;SDS011;60886;55.034;73.150;2023-07-30T02:19:18;9.80;;;5.40;;
72761;SDS011;60886;55.034;73.150;2023-07-30T02:22:19;10.32;;;5.95;;
72761;SDS011;60886;55.034;73.150;2023-07-30T02:25:21;8.27;;;4.80;;
72761;SDS011;60886;55.034;73.150;2023-07-30T02:28:24;8.83;;;4.93;;
72761;SDS011;60886;55.034;73.150;2023-07-30T02:31:25;8.23;;;5.22;;
72761;SDS011;60886;55.034;73.150;2023-07-30T02:34:27;10.38;;;6.90;;
72761;SDS011;60886;55.034;73.150;2023-07-30T02:37:29;10.73;;;6.07;;
72761;SDS011;60886;55.034;73.150;2023-07-30T02:40:39;10.80;;;6.55;;
72761;SDS011;60886;55.034;73.150;2023-07-30T02:43:40;8.90;;;5.00;;
72761;SDS011;60886;55.034;73.150;2023-07-30T02:46:41;10.07;;;5.90;;
72761;SDS011;60886;55.034;73.150;2023-07-30T02:49:43;9.73;;;6.15;;
72761;SDS011;60886;55.034;73.150;2023-07-30T02:52:44;9.33;;;5.67;;
72761;SDS011;60886;55.034;73.150;2023-07-30T02:55:46;14.87;;;8.57;;
72761;SDS011;60886;55.034;73.150;2023-07-30T02:58:47;10.10;;;5.30;;
72761;SDS011;60886;55.034;73.150;2023-07-30T03:01:48;10.20;;;5.20;;
72761;SDS011;60886;55.034;73.150;2023-07-30T03:04:50;9.07;;;5.15;;
72761;SDS011;60886;55.034;73.150;2023-07-30T03:07:51;8.65;;;5.35;;
72761;SDS011;60886;55.034;73.150;2023-07-30T03:10:53;9.67;;;5.73;;
72761;SDS011;60886;55.034;73.150;2023-07-30T03:13:54;9.35;;;5.10;;
72761;SDS011;60886;55.034;73.150;2023-07-30T03:16:55;10.23;;;5.90;;
72761;SDS011;60886;55.034;73.150;2023-07-30T03:19:57;9.10;;;5.00;;
72761;SDS011;60886;55.034;73.150;2023-07-30T03:22:58;13.50;;;7.45;;
72761;SDS011;60886;55.034;73.150;2023-07-30T03:26:00;10.45;;;6.80;;
72761;SDS011;60886;55.034;73.150;2023-07-30T03:29:01;10.75;;;5.93;;
72761;SDS011;60886;55.034;73.150;2023-07-30T03:32:04;8.48;;;5.05;;
72761;SDS011;60886;55.034;73.150;2023-07-30T03:35:05;9.13;;;5.68;;
72761;SDS011;60886;55.034;73.150;2023-07-30T03:38:07;10.13;;;5.30;;
72761;SDS011;60886;55.034;73.150;2023-07-30T03:41:12;8.80;;;5.20;;
72761;SDS011;60886;55.034;73.150;2023-07-30T03:44:13;46.83;;;26.65;;
72761;SDS011;60886;55.034;73.150;2023-07-30T03:47:15;8.85;;;5.32;;
72761;SDS011;60886;55.034;73.150;2023-07-30T03:50:16;8.88;;;5.15;;
72761;SDS011;60886;55.034;73.150;2023-07-30T03:53:18;10.07;;;5.37;;
72761;SDS011;60886;55.034;73.150;2023-07-30T03:56:19;9.77;;;5.50;;
72761;SDS011;60886;55.034;73.150;2023-07-30T03:59:22;12.75;;;6.05;;
72761;SDS011;60886;55.034;73.150;2023-07-30T04:02:24;10.30;;;5.47;;
72761;SDS011;60886;55.034;73.150;2023-07-30T04:05:26;10.65;;;6.22;;
72761;SDS011;60886;55.034;73.150;2023-07-30T04:08:27;11.43;;;5.87;;
72761;SDS011;60886;55.034;73.150;2023-07-30T04:11:28;9.48;;;5.45;;
72761;SDS011;60886;55.034;73.150;2023-07-30T04:14:32;9.43;;;4.85;;
72761;SDS011;60886;55.034;73.150;2023-07-30T04:17:34;13.00;;;5.00;;
72761;SDS011;60886;55.034;73.150;2023-07-30T04:20:39;9.30;;;5.03;;
72761;SDS011;60886;55.034;73.150;2023-07-30T04:23:40;8.60;;;4.90;;
72761;SDS011;60886;55.034;73.150;2023-07-30T04:26:42;10.93;;;5.07;;
72761;SDS011;60886;55.034;73.150;2023-07-30T04:29:43;8.50;;;4.93;;
72761;SDS011;60886;55.034;73.150;2023-07-30T04:32:45;9.93;;;5.63;;
72761;SDS011;60886;55.034;73.150;2023-07-30T04:35:47;8.75;;;4.78;;
72761;SDS011;60886;55.034;73.150;2023-07-30T04:38:48;9.90;;;4.90;;
72761;SDS011;60886;55.034;73.150;2023-07-30T04:41:49;13.20;;;6.43;;
72761;SDS011;60886;55.034;73.150;2023-07-30T04:44:51;11.73;;;5.72;;
72761;SDS011;60886;55.034;73.150;2023-07-30T04:47:52;10.35;;;5.80;;
72761;SDS011;60886;55.034;73.150;2023-07-30T04:50:54;10.70;;;5.53;;
72761;SDS011;60886;55.034;73.150;2023-07-30T04:53:55;10.50;;;5.20;;
72761;SDS011;60886;55.034;73.150;2023-07-30T04:56:57;9.27;;;5.17;;
72761;SDS011;60886;55.034;73.150;2023-07-30T04:59:58;8.13;;;5.10;;
72761;SDS011;60886;55.034;73.150;2023-07-30T05:02:59;8.93;;;5.23;;
72761;SDS011;60886;55.034;73.150;2023-07-30T05:06:01;7.77;;;4.40;;
72761;SDS011;60886;55.034;73.150;2023-07-30T05:09:02;8.50;;;5.05;;
72761;SDS011;60886;55.034;73.150;2023-07-30T05:12:04;9.37;;;5.40;;
72761;SDS011;60886;55.034;73.150;2023-07-30T05:15:06;8.98;;;4.75;;
72761;SDS011;60886;55.034;73.150;2023-07-30T05:18:07;10.73;;;5.18;;
72761;SDS011;60886;55.034;73.150;2023-07-30T05:21:09;8.60;;;5.07;;
72761;SDS011;60886;55.034;73.150;2023-07-30T05:24:10;9.20;;;4.80;;
72761;SDS011;60886;55.034;73.150;2023-07-30T05:27:12;8.17;;;5.03;;
72761;SDS011;60886;55.034;73.150;2023-07-30T05:30:14;11.77;;;5.60;;
72761;SDS011;60886;55.034;73.150;2023-07-30T05:33:15;8.65;;;4.95;;
72761;SDS011;60886;55.034;73.150;2023-07-30T05:36:16;8.40;;;5.20;;
72761;SDS011;60886;55.034;73.150;2023-07-30T05:39:18;10.88;;;6.00;;
72761;SDS011;60886;55.034;73.150;2023-07-30T05:42:19;8.10;;;4.63;;
72761;SDS011;60886;55.034;73.150;2023-07-30T05:45:21;8.10;;;4.95;;
72761;SDS011;60886;55.034;73.150;2023-07-30T05:48:22;8.20;;;4.93;;
72761;SDS011;60886;55.034;73.150;2023-07-30T05:51:23;8.00;;;4.90;;
72761;SDS011;60886;55.034;73.150;2023-07-30T05:54:25;8.20;;;4.78;;
72761;SDS011;60886;55.034;73.150;2023-07-30T05:57:26;8.15;;;4.70;;
72761;SDS011;60886;55.034;73.150;2023-07-30T06:00:28;10.70;;;5.10;;
72761;SDS011;60886;55.034;73.150;2023-07-30T06:03:29;9.88;;;4.95;;
72761;SDS011;60886;55.034;73.150;2023-07-30T06:06:32;8.77;;;4.70;;
72761;SDS011;60886;55.034;73.150;2023-07-30T06:09:34;10.82;;;5.47;;
72761;SDS011;60886;55.034;73.150;2023-07-30T06:12:35;9.27;;;5.23;;
72761;SDS011;60886;55.034;73.150;2023-07-30T06:15:39;8.57;;;4.80;;
72761;SDS011;60886;55.034;73.150;2023-07-30T06:18:40;9.13;;;5.05;;
72761;SDS011;60886;55.034;73.150;2023-07-30T06:21:41;8.83;;;5.30;;
72761;SDS011;60886;55.034;73.150;2023-07-30T06:24:44;10.60;;;5.03;;
72761;SDS011;60886;55.034;73.150;2023-07-30T06:27:45;9.97;;;5.23;;
72761;SDS011;60886;55.034;73.150;2023-07-30T06:30:47;9.50;;;5.23;;
72761;SDS011;60886;55.034;73.150;2023-07-30T06:33:48;9.07;;;5.25;;
72761;SDS011;60886;55.034;73.150;2023-07-30T06:36:50;8.50;;;4.73;;
72761;SDS011;60886;55.034;73.150;2023-07-30T06:39:51;8.95;;;5.03;;
72761;SDS011;60886;55.034;73.150;2023-07-30T06:42:52;9.73;;;5.00;;
72761;SDS011;60886;55.034;73.150;2023-07-30T06:45:54;7.67;;;4.90;;
72761;SDS011;60886;55.034;73.150;2023-07-30T06:48:55;8.65;;;4.90;;
72761;SDS011;60886;55.034;73.150;2023-07-30T06:51:57;8.47;;;4.87;;
72761;SDS011;60886;55.034;73.150;2023-07-30T06:54:58;7.97;;;4.90;;
72761;SDS011;60886;55.034;73.150;2023-07-30T06:58:00;8.20;;;5.03;;
72761;SDS011;60886;55.034;73.150;2023-07-30T07:01:02;13.03;;;5.10;;
72761;SDS011;60886;55.034;73.150;2023-07-30T07:04:03;8.23;;;4.50;;
72761;SDS011;60886;55.034;73.150;2023-07-30T07:07:04;8.77;;;4.68;;
72761;SDS011;60886;55.034;73.150;2023-07-30T07:10:06;7.90;;;4.77;;
72761;SDS011;60886;55.034;73.150;2023-07-30T07:13:08;13.63;;;4.80;;
72761;SDS011;60886;55.034;73.150;2023-07-30T07:16:11;8.27;;;5.30;;
72761;SDS011;60886;55.034;73.150;2023-07-30T07:19:12;8.98;;;4.95;;
72761;SDS011;60886;55.034;73.150;2023-07-30T07:22:13;8.48;;;4.25;;
72761;SDS011;60886;55.034;73.150;2023-07-30T07:25:15;9.60;;;4.75;;
72761;SDS011;60886;55.034;73.150;2023-07-30T07:28:20;9.43;;;4.90;;
72761;SDS011;60886;55.034;73.150;2023-07-30T07:31:23;8.87;;;4.73;;
72761;SDS011;60886;55.034;73.150;2023-07-30T07:34:24;7.63;;;4.28;;
72761;SDS011;60886;55.034;73.150;2023-07-30T07:37:25;8.38;;;4.70;;
72761;SDS011;60886;55.034;73.150;2023-07-30T07:40:27;8.57;;;4.40;;
72761;SDS011;60886;55.034;73.150;2023-07-30T07:43:28;8.47;;;4.97;;
72761;SDS011;60886;55.034;73.150;2023-07-30T07:46:29;8.70;;;4.90;;
72761;SDS011;60886;55.034;73.150;2023-07-30T07:49:31;9.15;;;5.47;;
72761;SDS011;60886;55.034;73.150;2023-07-30T07:52:32;8.47;;;5.03;;
72761;SDS011;60886;55.034;73.150;2023-07-30T07:55:38;8.65;;;4.88;;
72761;SDS011;60886;55.034;73.150;2023-07-30T07:58:40;9.43;;;5.20;;
72761;SDS011;60886;55.034;73.150;2023-07-30T08:01:43;7.87;;;5.00;;
72761;SDS011;60886;55.034;73.150;2023-07-30T08:04:46;9.35;;;5.25;;
72761;SDS011;60886;55.034;73.150;2023-07-30T08:07:47;9.30;;;5.07;;
72761;SDS011;60886;55.034;73.150;2023-07-30T08:10:49;8.03;;;4.70;;
72761;SDS011;60886;55.034;73.150;2023-07-30T08:13:50;9.13;;;5.38;;
72761;SDS011;60886;55.034;73.150;2023-07-30T08:16:52;8.27;;;4.40;;
72761;SDS011;60886;55.034;73.150;2023-07-30T08:19:53;9.18;;;5.38;;
72761;SDS011;60886;55.034;73.150;2023-07-30T08:22:55;8.23;;;4.70;;
72761;SDS011;60886;55.034;73.150;2023-07-30T08:25:56;8.50;;;4.90;;
72761;SDS011;60886;55.034;73.150;2023-07-30T08:28:58;8.15;;;4.63;;
72761;SDS011;60886;55.034;73.150;2023-07-30T08:31:59;9.15;;;5.63;;
72761;SDS011;60886;55.034;73.150;2023-07-30T08:35:00;8.45;;;4.68;;
72761;SDS011;60886;55.034;73.150;2023-07-30T08:38:04;9.03;;;5.10;;
72761;SDS011;60886;55.034;73.150;2023-07-30T08:41:05;7.53;;;4.50;;
72761;SDS011;60886;55.034;73.150;2023-07-30T08:44:06;7.53;;;4.30;;
72761;SDS011;60886;55.034;73.150;2023-07-30T08:47:10;8.85;;;4.90;;
72761;SDS011;60886;55.034;73.150;2023-07-30T08:50:12;8.95;;;4.85;;
72761;SDS011;60886;55.034;73.150;2023-07-30T08:53:14;9.97;;;4.97;;
72761;SDS011;60886;55.034;73.150;2023-07-30T08:56:16;8.57;;;4.80;;
72761;SDS011;60886;55.034;73.150;2023-07-30T08:59:18;9.57;;;5.18;;
72761;SDS011;60886;55.034;73.150;2023-07-30T09:02:26;9.55;;;5.28;;
72761;SDS011;60886;55.034;73.150;2023-07-30T09:05:38;8.70;;;4.90;;
72761;SDS011;60886;55.034;73.150;2023-07-30T09:08:40;10.07;;;5.07;;
72761;SDS011;60886;55.034;73.150;2023-07-30T09:11:42;8.27;;;5.00;;
72761;SDS011;60886;55.034;73.150;2023-07-30T09:14:43;7.97;;;4.50;;
72761;SDS011;60886;55.034;73.150;2023-07-30T09:17:47;8.00;;;4.60;;
72761;SDS011;60886;55.034;73.150;2023-07-30T09:20:49;7.75;;;4.43;;
72761;SDS011;60886;55.034;73.150;2023-07-30T09:23:50;8.07;;;4.40;;
72761;SDS011;60886;55.034;73.150;2023-07-30T09:26:52;8.23;;;4.80;;
72761;SDS011;60886;55.034;73.150;2023-07-30T09:29:54;12.10;;;4.60;;
72761;SDS011;60886;55.034;73.150;2023-07-30T09:32:57;8.93;;;4.55;;
72761;SDS011;60886;55.034;73.150;2023-07-30T09:36:02;7.77;;;4.33;;
72761;SDS011;60886;55.034;73.150;2023-07-30T09:39:04;7.85;;;4.63;;
72761;SDS011;60886;55.034;73.150;2023-07-30T09:42:15;8.30;;;4.67;;
72761;SDS011;60886;55.034;73.150;2023-07-30T09:45:17;8.40;;;4.60;;
72761;SDS011;60886;55.034;73.150;2023-07-30T09:48:21;7.72;;;4.60;;
72761;SDS011;60886;55.034;73.150;2023-07-30T09:51:22;8.17;;;4.10;;
72761;SDS011;60886;55.034;73.150;2023-07-30T09:54:25;7.43;;;4.10;;
72761;SDS011;60886;55.034;73.150;2023-07-30T09:57:27;8.82;;;4.53;;
72761;SDS011;60886;55.034;73.150;2023-07-30T10:00:38;7.74;;;4.51;;
72761;SDS011;60886;55.034;73.150;2023-07-30T10:03:40;7.65;;;4.00;;
72761;SDS011;60886;55.034;73.150;2023-07-30T10:06:46;7.90;;;4.23;;
72761;SDS011;60886;55.034;73.150;2023-07-30T10:09:58;10.05;;;4.38;;
72761;SDS011;60886;55.034;73.150;2023-07-30T10:13:08;9.30;;;4.83;;
72761;SDS011;60886;55.034;73.150;2023-07-30T10:16:11;10.80;;;4.30;;
72761;SDS011;60886;55.034;73.150;2023-07-30T10:19:14;8.40;;;4.70;;
72761;SDS011;60886;55.034;73.150;2023-07-30T10:25:21;9.18;;;4.05;;
72761;SDS011;60886;55.034;73.150;2023-07-30T10:32:13;8.20;;;3.77;;
72761;SDS011;60886;55.034;73.150;2023-07-30T10:34:56;7.82;;;3.80;;
72761;SDS011;60886;55.034;73.150;2023-07-30T10:37:58;6.93;;;3.73;;
72761;SDS011;60886;55.034;73.150;2023-07-30T10:41:06;7.10;;;3.50;;
72761;SDS011;60886;55.034;73.150;2023-07-30T10:44:26;10.13;;;4.10;;
72761;SDS011;60886;55.034;73.150;2023-07-30T10:47:34;9.85;;;4.03;;
72761;SDS011;60886;55.034;73.150;2023-07-30T10:50:38;9.93;;;4.40;;
72761;SDS011;60886;55.034;73.150;2023-07-30T10:53:47;6.82;;;3.40;;
72761;SDS011;60886;55.034;73.150;2023-07-30T10:56:51;7.70;;;3.50;;
72761;SDS011;60886;55.034;73.150;2023-07-30T10:59:52;7.10;;;3.80;;
72761;SDS011;60886;55.034;73.150;2023-07-30T11:02:55;7.72;;;3.72;;
72761;SDS011;60886;55.034;73.150;2023-07-30T11:05:57;7.30;;;3.90;;
72761;SDS011;60886;55.034;73.150;2023-07-30T11:08:59;7.93;;;3.90;;
72761;SDS011;60886;55.034;73.150;2023-07-30T11:12:00;7.40;;;3.70;;
72761;SDS011;60886;55.034;73.150;2023-07-30T11:15:05;7.47;;;3.90;;
72761;SDS011;60886;55.034;73.150;2023-07-30T11:18:07;7.82;;;3.92;;
72761;SDS011;60886;55.034;73.150;2023-07-30T11:21:09;7.57;;;4.30;;
72761;SDS011;60886;55.034;73.150;2023-07-30T11:24:12;8.13;;;4.20;;
72761;SDS011;60886;55.034;73.150;2023-07-30T11:27:13;7.63;;;4.15;;
72761;SDS011;60886;55.034;73.150;2023-07-30T11:30:15;7.38;;;3.80;;
72761;SDS011;60886;55.034;73.150;2023-07-30T11:33:16;6.80;;;3.63;;
72761;SDS011;60886;55.034;73.150;2023-07-30T11:36:19;8.40;;;4.03;;
72761;SDS011;60886;55.034;73.150;2023-07-30T11:39:24;8.82;;;4.18;;
72761;SDS011;60886;55.034;73.150;2023-07-30T11:42:27;10.10;;;4.10;;
72761;SDS011;60886;55.034;73.150;2023-07-30T11:45:38;7.79;;;3.96;;
72761;SDS011;60886;55.034;73.150;2023-07-30T11:48:40;8.25;;;4.38;;
72761;SDS011;60886;55.034;73.150;2023-07-30T11:51:43;8.98;;;4.38;;
72761;SDS011;60886;55.034;73.150;2023-07-30T11:54:59;9.02;;;4.25;;
72761;SDS011;60886;55.034;73.150;2023-07-30T11:58:05;7.67;;;3.80;;
72761;SDS011;60886;55.034;73.150;2023-07-30T12:01:08;9.55;;;4.35;;
72761;SDS011;60886;55.034;73.150;2023-07-30T12:04:10;9.50;;;5.22;;
72761;SDS011;60886;55.034;73.150;2023-07-30T12:07:21;7.85;;;3.95;;
72761;SDS011;60886;55.034;73.150;2023-07-30T12:13:44;7.93;;;4.38;;
72761;SDS011;60886;55.034;73.150;2023-07-30T12:16:47;11.17;;;4.50;;
72761;SDS011;60886;55.034;73.150;2023-07-30T12:19:48;8.50;;;4.47;;
72761;SDS011;60886;55.034;73.150;2023-07-30T12:22:50;8.80;;;4.40;;
72761;SDS011;60886;55.034;73.150;2023-07-30T12:25:51;12.85;;;7.45;;
72761;SDS011;60886;55.034;73.150;2023-07-30T12:28:54;8.93;;;4.53;;
72761;SDS011;60886;55.034;73.150;2023-07-30T12:31:56;9.10;;;4.93;;
72761;SDS011;60886;55.034;73.150;2023-07-30T12:34:57;8.82;;;4.55;;
72761;SDS011;60886;55.034;73.150;2023-07-30T12:37:59;8.40;;;4.83;;
72761;SDS011;60886;55.034;73.150;2023-07-30T12:41:01;8.77;;;4.57;;
72761;SDS011;60886;55.034;73.150;2023-07-30T12:44:03;10.68;;;4.90;;
72761;SDS011;60886;55.034;73.150;2023-07-30T12:47:05;10.27;;;5.30;;
72761;SDS011;60886;55.034;73.150;2023-07-30T12:50:07;16.58;;;4.88;;
72761;SDS011;60886;55.034;73.150;2023-07-30T12:53:11;11.85;;;3.83;;
72761;SDS011;60886;55.034;73.150;2023-07-30T12:56:13;7.53;;;3.20;;
72761;SDS011;60886;55.034;73.150;2023-07-30T12:59:18;9.40;;;3.70;;
72761;SDS011;60886;55.034;73.150;2023-07-30T13:02:27;10.23;;;3.90;;
72761;SDS011;60886;55.034;73.150;2023-07-30T13:05:38;10.23;;;3.88;;
72761;SDS011;60886;55.034;73.150;2023-07-30T13:08:43;12.05;;;5.43;;
72761;SDS011;60886;55.034;73.150;2023-07-30T13:11:45;8.47;;;4.40;;
72761;SDS011;60886;55.034;73.150;2023-07-30T13:14:46;8.75;;;3.42;;
72761;SDS011;60886;55.034;73.150;2023-07-30T13:17:48;9.48;;;3.55;;
72761;SDS011;60886;55.034;73.150;2023-07-30T13:20:50;10.20;;;4.60;;
72761;SDS011;60886;55.034;73.150;2023-07-30T13:23:55;9.80;;;3.95;;
72761;SDS011;60886;55.034;73.150;2023-07-30T13:26:57;8.50;;;3.80;;
72761;SDS011;60886;55.034;73.150;2023-07-30T13:30:00;9.30;;;4.32;;
72761;SDS011;60886;55.034;73.150;2023-07-30T13:33:01;12.77;;;4.40;;
72761;SDS011;60886;55.034;73.150;2023-07-30T13:36:03;14.40;;;5.35;;
72761;SDS011;60886;55.034;73.150;2023-07-30T13:39:05;21.05;;;6.53;;
72761;SDS011;60886;55.034;73.150;2023-07-30T13:42:07;17.63;;;6.43;;
72761;SDS011;60886;55.034;73.150;2023-07-30T13:45:11;12.68;;;5.78;;
72761;SDS011;60886;55.034;73.150;2023-07-30T13:48:16;18.08;;;5.57;;
72761;SDS011;60886;55.034;73.150;2023-07-30T13:51:19;19.93;;;5.23;;
72761;SDS011;60886;55.034;73.150;2023-07-30T13:54:20;16.90;;;6.18;;
72761;SDS011;60886;55.034;73.150;2023-07-30T13:57:25;19.73;;;5.17;;
72761;SDS011;60886;55.034;73.150;2023-07-30T14:00:27;14.38;;;4.70;;
72761;SDS011;60886;55.034;73.150;2023-07-30T14:03:29;16.70;;;5.47;;
72761;SDS011;60886;55.034;73.150;2023-07-30T14:06:31;14.93;;;4.43;;
72761;SDS011;60886;55.034;73.150;2023-07-30T14:09:33;15.65;;;5.10;;
72761;SDS011;60886;55.034;73.150;2023-07-30T14:12:37;18.90;;;5.00;;
72761;SDS011;60886;55.034;73.150;2023-07-30T14:15:47;21.17;;;5.78;;
72761;SDS011;60886;55.034;73.150;2023-07-30T14:18:48;19.88;;;6.05;;
72761;SDS011;60886;55.034;73.150;2023-07-30T14:21:50;16.60;;;5.50;;
72761;SDS011;60886;55.034;73.150;2023-07-30T14:24:54;17.25;;;5.25;;
72761;SDS011;60886;55.034;73.150;2023-07-30T14:27:57;18.37;;;6.00;;
72761;SDS011;60886;55.034;73.150;2023-07-30T14:30:58;15.40;;;5.82;;
72761;SDS011;60886;55.034;73.150;2023-07-30T14:34:01;13.02;;;5.80;;
72761;SDS011;60886;55.034;73.150;2023-07-30T14:37:02;11.73;;;5.30;;
72761;SDS011;60886;55.034;73.150;2023-07-30T14:40:03;16.33;;;8.07;;
72761;SDS011;60886;55.034;73.150;2023-07-30T14:43:14;20.07;;;8.37;;
72761;SDS011;60886;55.034;73.150;2023-07-30T14:46:27;17.08;;;5.82;;
72761;SDS011;60886;55.034;73.150;2023-07-30T14:49:28;12.43;;;5.17;;
72761;SDS011;60886;55.034;73.150;2023-07-30T14:52:33;17.88;;;6.38;;
72761;SDS011;60886;55.034;73.150;2023-07-30T14:55:38;16.63;;;6.57;;
72761;SDS011;60886;55.034;73.150;2023-07-30T14:58:41;17.70;;;6.90;;
72761;SDS011;60886;55.034;73.150;2023-07-30T15:01:45;14.57;;;6.20;;
72761;SDS011;60886;55.034;73.150;2023-07-30T15:04:46;15.00;;;5.88;;
72761;SDS011;60886;55.034;73.150;2023-07-30T15:07:48;13.17;;;5.50;;
72761;SDS011;60886;55.034;73.150;2023-07-30T15:11:01;12.38;;;5.57;;
72761;SDS011;60886;55.034;73.150;2023-07-30T15:14:15;15.88;;;5.32;;
72761;SDS011;60886;55.034;73.150;2023-07-30T15:17:28;10.70;;;4.60;;
72761;SDS011;60886;55.034;73.150;2023-07-30T15:20:36;22.33;;;9.44;;
72761;SDS011;60886;55.034;73.150;2023-07-30T15:24:07;25.50;;;11.93;;
72761;SDS011;60886;55.034;73.150;2023-07-30T15:27:10;26.52;;;13.68;;
72761;SDS011;60886;55.034;73.150;2023-07-30T15:30:12;21.67;;;12.15;;
72761;SDS011;60886;55.034;73.150;2023-07-30T15:33:13;19.13;;;10.93;;
72761;SDS011;60886;55.034;73.150;2023-07-30T15:36:15;21.83;;;11.00;;
72761;SDS011;60886;55.034;73.150;2023-07-30T15:39:19;19.57;;;10.03;;
72761;SDS011;60886;55.034;73.150;2023-07-30T15:42:23;23.43;;;10.13;;
72761;SDS011;60886;55.034;73.150;2023-07-30T15:45:38;21.56;;;10.66;;
72761;SDS011;60886;55.034;73.150;2023-07-30T15:48:47;21.80;;;10.23;;
72761;SDS011;60886;55.034;73.150;2023-07-30T15:51:48;20.08;;;10.15;;
72761;SDS011;60886;55.034;73.150;2023-07-30T15:54:51;21.97;;;10.83;;
72761;SDS011;60886;55.034;73.150;2023-07-30T15:57:53;26.75;;;10.10;;
72761;SDS011;60886;55.034;73.150;2023-07-30T16:00:54;21.23;;;9.40;;
72761;SDS011;60886;55.034;73.150;2023-07-30T16:03:56;20.43;;;9.17;;
72761;SDS011;60886;55.034;73.150;2023-07-30T16:07:00;17.83;;;9.10;;
72761;SDS011;60886;55.034;73.150;2023-07-30T16:10:03;17.88;;;8.32;;
72761;SDS011;60886;55.034;73.150;2023-07-30T16:13:05;15.88;;;9.40;;
72761;SDS011;60886;55.034;73.150;2023-07-30T16:16:10;14.80;;;7.60;;
72761;SDS011;60886;55.034;73.150;2023-07-30T16:19:13;14.85;;;7.95;;
72761;SDS011;60886;55.034;73.150;2023-07-30T16:22:15;16.10;;;7.73;;
72761;SDS011;60886;55.034;73.150;2023-07-30T16:25:17;15.15;;;7.88;;
72761;SDS011;60886;55.034;73.150;2023-07-30T16:28:19;14.77;;;8.13;;
72761;SDS011;60886;55.034;73.150;2023-07-30T16:31:21;13.93;;;7.60;;
72761;SDS011;60886;55.034;73.150;2023-07-30T16:34:22;17.83;;;9.17;;
72761;SDS011;60886;55.034;73.150;2023-07-30T16:37:24;19.13;;;9.55;;
72761;SDS011;60886;55.034;73.150;2023-07-30T16:40:25;22.20;;;12.02;;
72761;SDS011;60886;55.034;73.150;2023-07-30T16:43:28;24.63;;;12.25;;
72761;SDS011;60886;55.034;73.150;2023-07-30T16:46:31;17.43;;;9.70;;
72761;SDS011;60886;55.034;73.150;2023-07-30T16:49:32;18.23;;;8.73;;
72761;SDS011;60886;55.034;73.150;2023-07-30T16:52:33;14.68;;;8.88;;
72761;SDS011;60886;55.034;73.150;2023-07-30T16:55:38;18.42;;;9.35;;
72761;SDS011;60886;55.034;73.150;2023-07-30T16:58:40;16.58;;;8.90;;
72761;SDS011;60886;55.034;73.150;2023-07-30T17:01:43;20.80;;;9.97;;
72761;SDS011;60886;55.034;73.150;2023-07-30T17:04:47;19.17;;;8.40;;
72761;SDS011;60886;55.034;73.150;2023-07-30T17:07:50;15.50;;;7.97;;
72761;SDS011;60886;55.034;73.150;2023-07-30T17:10:52;13.77;;;7.20;;
72761;SDS011;60886;55.034;73.150;2023-07-30T17:13:55;14.15;;;7.32;;
72761;SDS011;60886;55.034;73.150;2023-07-30T17:16:57;14.17;;;6.63;;
72761;SDS011;60886;55.034;73.150;2023-07-30T17:19:58;10.95;;;5.90;;
72761;SDS011;60886;55.034;73.150;2023-07-30T17:22:59;12.00;;;5.70;;
72761;SDS011;60886;55.034;73.150;2023-07-30T17:26:01;11.70;;;5.20;;
72761;SDS011;60886;55.034;73.150;2023-07-30T17:29:03;10.35;;;5.10;;
72761;SDS011;60886;55.034;73.150;2023-07-30T17:32:04;9.15;;;5.10;;
72761;SDS011;60886;55.034;73.150;2023-07-30T17:35:06;10.50;;;4.57;;
72761;SDS011;60886;55.034;73.150;2023-07-30T17:38:08;10.50;;;4.53;;
72761;SDS011;60886;55.034;73.150;2023-07-30T17:41:09;9.47;;;4.17;;
72761;SDS011;60886;55.034;73.150;2023-07-30T17:44:11;10.75;;;5.35;;
72761;SDS011;60886;55.034;73.150;2023-07-30T17:47:12;9.65;;;4.30;;
72761;SDS011;60886;55.034;73.150;2023-07-30T17:50:14;12.10;;;5.22;;
72761;SDS011;60886;55.034;73.150;2023-07-30T17:53:15;9.73;;;4.73;;
72761;SDS011;60886;55.034;73.150;2023-07-30T17:56:17;9.68;;;5.15;;
72761;SDS011;60886;55.034;73.150;2023-07-30T17:59:18;8.97;;;4.67;;
72761;SDS011;60886;55.034;73.150;2023-07-30T18:02:21;9.45;;;4.78;;
72761;SDS011;60886;55.034;73.150;2023-07-30T18:05:22;9.70;;;4.70;;
72761;SDS011;60886;55.034;73.150;2023-07-30T18:08:24;10.00;;;5.00;;